Time;durP1;ratioP1;P1;durP2;ratioP2;P2;SDS_P1;SDS_P2;PMS_P1;PMS_P2;Temp;Humidity;BMP_temperature;BMP_pressure;BME280_temperature;BME280_humidity;BME280_pressure;Samples;Min_cycle;Max_cycle;Signal;HPM_P1;HPM_P2
2023/01/23 00:00:54;;;;;;;36.33;19.93;;;3.40;99.90;;;;;;6217528;22;39194;-81
2023/01/23 00:09:14;;;;;;;28.90;17.83;;;3.40;99.90;;;;;;6294137;22;20111;-81
2023/01/23 00:11:40;;;;;;;29.90;20.57;;;3.40;99.90;;;;;;6304381;22;39681;-81
2023/01/23 00:14:07;;;;;;;33.03;19.77;;;3.40;99.90;;;;;;6291009;22;39769;-81
2023/01/23 00:22:27;;;;;;;29.27;18.70;;;3.40;99.90;;;;;;6221145;22;20035;-79
2023/01/23 00:31:05;;;;;;;24.75;17.30;;;3.40;99.90;;;;;;6240360;22;21586;-80
2023/01/23 00:33:31;;;;;;;;;;;3.40;99.90;;;;;;6283399;22;49974;-82
2023/01/23 00:41:51;;;;;;;31.00;20.17;;;3.40;99.90;;;;;;6255038;22;20019;-83
2023/01/23 00:44:31;;;;;;;34.70;18.80;;;3.40;99.90;;;;;;6302420;22;39263;-81
2023/01/23 00:52:26;;;;;;;29.40;17.90;;;3.30;99.90;;;;;;6281537;22;20069;-81
2023/01/23 00:54:52;;;;;;;32.50;18.20;;;3.30;99.90;;;;;;6273042;22;50099;-80
2023/01/23 01:00:04;;;;;;;30.17;18.73;;;3.30;99.90;;;;;;6272934;22;20014;-80
2023/01/23 01:02:34;;;;;;;31.43;19.33;;;3.30;99.90;;;;;;6292411;22;37659;-81
2023/01/23 01:05:00;;;;;;;31.20;20.80;;;3.30;99.90;;;;;;6299940;22;39042;-78
2023/01/23 01:07:27;;;;;;;26.90;18.33;;;3.30;99.90;;;;;;6268603;22;38300;-81
2023/01/23 01:09:53;;;;;;;25.70;17.70;;;3.30;99.90;;;;;;6218752;22;38072;-80
2023/01/23 01:21:11;;;;;;;24.70;16.60;;;3.30;99.90;;;;;;6282511;22;20004;-80
2023/01/23 01:23:38;;;;;;;29.53;18.20;;;3.30;99.90;;;;;;6247634;22;39751;-81
2023/01/23 01:26:11;;;;;;;27.90;18.80;;;3.30;99.90;;;;;;6306517;22;39991;-81
2023/01/23 01:31:17;;;;;;;25.27;18.10;;;3.30;99.90;;;;;;6257355;22;20015;-81
2023/01/23 01:36:23;;;;;;;29.73;18.20;;;3.20;99.90;;;;;;6240512;22;20020;-81
2023/01/23 01:43:56;;;;;;;28.97;18.13;;;3.20;99.90;;;;;;6340314;22;20079;-82
2023/01/23 01:46:25;;;;;;;29.47;17.93;;;3.20;99.90;;;;;;6268856;22;40206;-79
2023/01/23 01:49:26;;;;;;;27.40;17.70;;;3.20;99.90;;;;;;6292319;22;38911;-83
2023/01/23 01:55:00;;;;;;;28.70;18.15;;;3.10;99.90;;;;;;6205727;22;20181;-82
2023/01/23 01:57:43;;;;;;;30.23;18.23;;;3.10;99.90;;;;;;6295000;22;40203;-81
2023/01/23 02:00:11;;;;;;;;;;;3.10;99.90;;;;;;6297908;22;39017;-81
2023/01/23 02:02:57;;;;;;;26.67;17.13;;;3.10;99.90;;;;;;6252844;22;38433;-82
2023/01/23 02:05:57;;;;;;;32.70;18.37;;;3.10;99.90;;;;;;6306071;22;37592;-81
2023/01/23 02:08:47;;;;;;;26.40;18.67;;;3.10;99.90;;;;;;6269299;22;38982;-81
2023/01/23 02:11:15;;;;;;;27.33;18.43;;;3.10;99.90;;;;;;6256396;22;38878;-82
2023/01/23 02:13:46;;;;;;;30.87;18.40;;;3.10;99.90;;;;;;6281042;22;38273;-81
2023/01/23 02:18:55;;;;;;;29.37;18.07;;;3.10;99.90;;;;;;6220381;22;20008;-81
2023/01/23 02:21:23;;;;;;;26.77;17.33;;;3.10;99.90;;;;;;6305106;22;39100;-80
2023/01/23 02:24:30;;;;;;;29.73;17.43;;;3.20;99.90;;;;;;6305412;22;39439;-81
2023/01/23 02:27:04;;;;;;;29.60;17.60;;;3.20;99.90;;;;;;6329708;22;48398;-81
2023/01/23 02:29:47;;;;;;;25.67;17.70;;;3.20;99.90;;;;;;6297713;22;48288;-81
2023/01/23 02:32:58;;;;;;;26.73;17.15;;;3.10;99.90;;;;;;6302320;22;39834;-81
2023/01/23 02:35:41;;;;;;;35.63;17.90;;;3.20;99.90;;;;;;6296656;22;39958;-81
2023/01/23 02:38:30;;;;;;;31.03;18.17;;;3.20;99.90;;;;;;6302830;22;38892;-81
2023/01/23 02:41:13;;;;;;;35.53;19.00;;;3.20;99.90;;;;;;6296609;22;38810;-81
2023/01/23 02:43:42;;;;;;;32.23;18.77;;;3.20;99.90;;;;;;6277324;22;48646;-81
2023/01/23 02:46:11;;;;;;;34.50;19.70;;;3.20;99.90;;;;;;6274336;22;39542;-81
2023/01/23 02:54:25;;;;;;;33.67;19.80;;;3.20;99.90;;;;;;6304342;22;20059;-81
2023/01/23 02:56:56;;;;;;;31.63;19.17;;;3.20;99.90;;;;;;6316411;22;48476;-81
2023/01/23 03:07:09;;;;;;;31.17;18.60;;;3.20;99.90;;;;;;6244929;22;20018;-82
2023/01/23 03:13:10;;;;;;;31.75;18.20;;;3.20;99.90;;;;;;6288167;22;20064;-82
2023/01/23 03:18:13;;;;;;;30.53;19.00;;;3.20;99.90;;;;;;6288159;22;20020;-83
2023/01/23 03:21:02;;;;;;;33.27;18.97;;;3.10;99.90;;;;;;6309029;22;38610;-83
2023/01/23 03:23:28;;;;;;;34.20;19.70;;;3.20;99.90;;;;;;6251329;22;48753;-82
2023/01/23 03:36:56;;;;;;;36.50;18.70;;;3.20;99.90;;;;;;6262277;22;21377;31
2023/01/23 03:42:46;;;;;;;34.83;19.20;;;3.20;99.90;;;;;;6274611;22;20015;-81
2023/01/23 03:45:32;;;;;;;33.60;18.73;;;3.10;99.90;;;;;;6307591;22;38997;-82
2023/01/23 03:48:29;;;;;;;35.10;19.70;;;3.10;99.90;;;;;;6294862;22;38472;-81
2023/01/23 03:50:55;;;;;;;33.67;18.40;;;3.10;99.90;;;;;;6295337;22;50178;-81
2023/01/23 03:53:47;;;;;;;34.80;20.43;;;3.10;99.90;;;;;;6282577;22;37723;-80
2023/01/23 03:58:57;;;;;;;33.40;19.40;;;3.10;99.90;;;;;;6320499;22;20004;-81
2023/01/23 04:06:35;;;;;;;38.03;20.43;;;3.10;99.90;;;;;;6274894;22;20004;-81
2023/01/23 04:09:02;;;;;;;31.87;19.20;;;3.20;99.90;;;;;;6314361;22;38900;-80
2023/01/23 04:11:28;;;;;;;39.47;20.53;;;3.20;99.90;;;;;;6309522;22;48906;-82
2023/01/23 04:21:59;;;;;;;36.90;20.17;;;3.10;99.90;;;;;;6304475;22;20064;-82
2023/01/23 04:29:39;;;;;;;37.83;21.43;;;3.10;99.90;;;;;;6267628;22;20022;-82
2023/01/23 04:34:41;;;;;;;32.80;19.30;;;3.10;99.90;;;;;;6213547;22;1261102;-81
2023/01/23 04:37:18;;;;;;;34.47;21.57;;;3.10;99.90;;;;;;6308750;22;39332;-81
2023/01/23 04:39:44;;;;;;;34.20;20.00;;;3.10;99.90;;;;;;6301480;22;39053;-81
2023/01/23 04:45:07;;;;;;;31.47;20.00;;;3.10;99.90;;;;;;6289141;22;20055;-83
2023/01/23 04:47:38;;;;;;;37.20;20.37;;;3.10;99.90;;;;;;6268677;22;48721;-82
2023/01/23 04:50:08;;;;;;;36.10;20.73;;;3.10;99.90;;;;;;6287304;22;38836;-80
2023/01/23 04:58:19;;;;;;;31.08;18.35;;;3.20;99.90;;;;;;6273848;22;20022;-80
2023/01/23 05:00:46;;;;;;;31.67;20.30;;;3.20;99.90;;;;;;6310819;22;39347;-81
2023/01/23 05:03:15;;;;;;;32.83;20.27;;;3.20;99.90;;;;;;6300428;22;38250;-81
2023/01/23 05:05:43;;;;;;;33.63;20.50;;;3.20;99.90;;;;;;6306327;22;37556;-81
2023/01/23 05:10:45;;;;;;;35.27;21.73;;;3.10;99.90;;;;;;6219668;22;20012;-81
2023/01/23 05:13:44;;;;;;;31.53;21.10;;;3.20;99.90;;;;;;6291347;22;38352;-80
2023/01/23 05:16:11;;;;;;;36.50;21.23;;;3.20;99.90;;;;;;6301733;22;39202;-80
2023/01/23 05:18:54;;;;;;;32.57;20.27;;;3.20;99.90;;;;;;6296912;22;39330;-80
2023/01/23 05:21:43;;;;;;;40.20;22.17;;;3.20;99.90;;;;;;6304485;22;40331;-81
2023/01/23 05:29:22;;;;;;;34.93;20.50;;;3.20;99.90;;;;;;6242035;22;20007;-81
2023/01/23 05:45:41;;;;;;;32.13;20.47;;;3.30;99.90;;;;;;6239923;22;20018;-80
2023/01/23 05:48:20;;;;;;;32.93;20.20;;;3.30;99.90;;;;;;6307413;22;37846;-83
2023/01/23 05:50:46;;;;;;;36.30;22.97;;;3.30;99.90;;;;;;6290113;22;39319;-81
2023/01/23 06:01:39;;;;;;;31.63;20.83;;;3.30;99.90;;;;;;6252237;22;19997;-81
2023/01/23 06:09:17;;;;;;;32.63;21.07;;;3.30;99.90;;;;;;6263548;22;20017;-81
2023/01/23 06:11:56;;;;;;;39.80;22.57;;;3.30;99.90;;;;;;6320094;22;40239;-81
2023/01/23 06:14:22;;;;;;;37.50;22.60;;;3.30;99.90;;;;;;6337403;22;39740;-81
2023/01/23 06:16:49;;;;;;;39.33;22.13;;;3.30;99.90;;;;;;6340396;22;38234;-81
2023/01/23 06:19:16;;;;;;;31.57;20.50;;;3.30;99.90;;;;;;6308693;22;37974;-80
2023/01/23 06:21:42;;;;;;;36.33;23.13;;;3.20;99.90;;;;;;6270694;22;38948;-80
2023/01/23 06:29:15;;;;;;;36.97;23.07;;;3.20;99.90;;;;;;6336357;22;20068;-81
2023/01/23 06:39:55;;;;;;;41.30;23.93;;;3.10;99.90;;;;;;6291451;22;20080;-81
2023/01/23 06:42:22;;;;;;;39.05;23.65;;;3.10;99.90;;;;;;6242018;22;38710;-81
2023/01/23 06:44:48;;;;;;;44.00;25.60;;;3.00;99.90;;;;;;6261242;22;38911;-81
2023/01/23 06:47:15;;;;;;;38.20;24.33;;;3.10;99.90;;;;;;6254972;22;38143;-80
2023/01/23 06:49:42;;;;;;;39.17;23.10;;;3.10;99.90;;;;;;6267770;22;36722;-80
2023/01/23 06:52:17;;;;;;;40.47;24.00;;;3.10;99.90;;;;;;6268913;22;38568;-80
2023/01/23 06:54:43;;;;;;;39.77;24.00;;;3.10;99.90;;;;;;6276338;22;39905;-80
2023/01/23 06:57:26;;;;;;;44.87;23.60;;;3.10;99.90;;;;;;6200558;22;37816;-81
2023/01/23 06:59:52;;;;;;;42.55;24.98;;;3.10;99.90;;;;;;6269291;22;37921;-80
2023/01/23 07:02:18;;;;;;;43.73;26.00;;;3.10;99.90;;;;;;6306822;22;39280;-81
2023/01/23 07:04:51;;;;;;;42.30;24.70;;;3.10;99.90;;;;;;6308947;22;38722;-81
2023/01/23 07:07:17;;;;;;;35.70;23.88;;;3.10;99.90;;;;;;6301239;22;40185;-82
2023/01/23 07:10:09;;;;;;;41.33;24.63;;;3.10;99.90;;;;;;6304051;22;37084;-81
2023/01/23 07:12:41;;;;;;;44.80;25.37;;;3.10;99.90;;;;;;6303618;22;47521;-81
2023/01/23 07:15:15;;;;;;;44.47;25.45;;;3.10;99.90;;;;;;6288480;22;38060;-80
2023/01/23 07:17:42;;;;;;;43.00;25.50;;;3.10;99.90;;;;;;6294115;22;39615;-81
2023/01/23 07:20:09;;;;;;;41.27;23.77;;;3.10;99.90;;;;;;6305260;22;37089;-81
2023/01/23 07:22:35;;;;;;;44.13;25.13;;;3.20;99.90;;;;;;6305649;22;39308;-81
2023/01/23 07:25:08;;;;;;;39.83;24.97;;;3.20;99.90;;;;;;6304704;22;38460;-81
2023/01/23 07:27:34;;;;;;;;;;;3.20;99.90;;;;;;6306116;22;49137;-80
2023/01/23 07:30:01;;;;;;;40.67;23.17;;;3.20;99.90;;;;;;6307238;22;37639;-81
2023/01/23 07:32:27;;;;;;;47.83;26.77;;;3.20;99.90;;;;;;6296286;22;38213;-80
2023/01/23 07:34:55;;;;;;;42.67;25.20;;;3.20;99.90;;;;;;6298825;22;38414;-80
2023/01/23 07:37:21;;;;;;;45.53;25.97;;;3.10;99.90;;;;;;6298734;22;38446;-81
2023/01/23 07:39:57;;;;;;;41.77;24.23;;;3.20;99.90;;;;;;6301122;22;38039;-79
2023/01/23 07:42:27;;;;;;;37.93;24.43;;;3.20;99.90;;;;;;6301552;22;40344;-80
2023/01/23 07:45:03;;;;;;;41.83;24.90;;;3.30;99.90;;;;;;6294020;22;38819;-82
2023/01/23 07:47:38;;;;;;;42.27;25.23;;;3.30;99.90;;;;;;6286999;22;48254;-82
2023/01/23 07:51:07;;;;;;;45.13;25.53;;;3.30;99.90;;;;;;6280376;22;38858;-83
2023/01/23 07:53:53;;;;;;;43.07;25.00;;;3.20;99.90;;;;;;6230448;22;40252;-80
2023/01/23 07:56:19;;;;;;;42.27;25.90;;;3.30;99.90;;;;;;6301184;22;37156;-80
2023/01/23 07:58:49;;;;;;;43.50;25.07;;;3.30;99.90;;;;;;6303295;22;37787;-79
2023/01/23 08:01:17;;;;;;;41.07;24.73;;;3.30;99.90;;;;;;6298163;22;37203;-81
2023/01/23 08:03:45;;;;;;;39.63;25.97;;;3.30;99.90;;;;;;6302975;22;38549;-81
2023/01/23 08:06:11;;;;;;;46.63;27.80;;;3.30;99.90;;;;;;6301923;22;36946;-80
2023/01/23 08:08:40;;;;;;;45.20;27.27;;;3.30;99.90;;;;;;6303080;22;39734;-81
2023/01/23 08:11:10;;;;;;;47.10;26.47;;;3.30;99.90;;;;;;6298066;22;37392;-80
2023/01/23 08:13:37;;;;;;;42.80;24.73;;;3.40;99.90;;;;;;6297239;22;38929;-81
2023/01/23 08:16:07;;;;;;;40.53;24.43;;;3.30;99.90;;;;;;6297749;22;38803;-80
2023/01/23 08:18:33;;;;;;;41.33;24.87;;;3.40;99.90;;;;;;6297522;22;40514;-81
2023/01/23 08:28:51;;;;;;;41.47;23.10;;;3.40;99.90;;;;;;6296227;22;20015;-81
2023/01/23 08:32:09;;;;;;;33.23;21.93;;;3.40;99.90;;;;;;6231827;22;38882;-81
2023/01/23 08:38:10;;;;;;;39.37;24.03;;;3.50;99.90;;;;;;6208080;22;40234;-81
2023/01/23 08:40:36;;;;;;;37.50;21.57;;;3.50;99.90;;;;;;6296948;22;37262;-83
2023/01/23 08:43:04;;;;;;;39.37;23.40;;;3.60;99.90;;;;;;6300081;22;37561;-80
2023/01/23 08:45:30;;;;;;;35.53;21.67;;;3.60;99.90;;;;;;6293121;22;37587;-80
2023/01/23 08:47:56;;;;;;;35.73;21.03;;;3.60;99.90;;;;;;6299756;22;38159;-79
2023/01/23 08:50:22;;;;;;;30.87;21.07;;;3.60;99.90;;;;;;6290325;22;37347;-80
2023/01/23 08:52:48;;;;;;;33.63;21.50;;;3.70;99.90;;;;;;6291139;22;38507;-79
2023/01/23 08:55:16;;;;;;;37.00;21.13;;;3.70;99.90;;;;;;6287744;22;37980;-80
2023/01/23 08:57:42;;;;;;;29.30;20.07;;;3.70;99.90;;;;;;6296974;22;37334;-81
2023/01/23 09:00:09;;;;;;;28.13;19.27;;;3.80;99.90;;;;;;6293616;22;37123;-78
2023/01/23 09:05:13;;;;;;;32.27;20.37;;;3.90;99.90;;;;;;6296988;22;20024;-80
2023/01/23 09:07:39;;;;;;;34.47;20.43;;;3.90;99.90;;;;;;6268809;22;36950;-80
2023/01/23 09:10:06;;;;;;;30.30;19.07;;;4.00;99.90;;;;;;6268129;22;36936;-80
2023/01/23 09:12:33;;;;;;;28.23;18.50;;;4.00;99.90;;;;;;6258958;22;37729;-80
2023/01/23 09:14:59;;;;;;;31.37;20.07;;;4.10;99.90;;;;;;6267396;22;38949;-79
2023/01/23 09:17:25;;;;;;;28.97;17.90;;;4.10;99.90;;;;;;6263609;22;40239;-79
2023/01/23 09:19:52;;;;;;;35.17;18.37;;;4.00;99.90;;;;;;6273895;22;38026;-80
2023/01/23 09:22:19;;;;;;;29.30;19.23;;;4.00;99.90;;;;;;6295182;22;37387;-80
2023/01/23 09:24:45;;;;;;;32.20;19.47;;;4.10;99.90;;;;;;6295243;22;37250;-80
2023/01/23 09:27:20;;;;;;;29.67;18.53;;;4.20;99.90;;;;;;6294739;22;39600;-80
2023/01/23 09:29:49;;;;;;;33.40;18.70;;;4.20;99.90;;;;;;6304643;22;38646;-80
2023/01/23 09:32:16;;;;;;;26.57;17.23;;;4.20;99.90;;;;;;6302462;22;38486;-81
2023/01/23 09:34:42;;;;;;;26.93;18.17;;;4.30;99.90;;;;;;6274489;22;38436;-80
2023/01/23 09:37:17;;;;;;;30.03;19.30;;;4.30;99.90;;;;;;6271509;22;37413;-79
2023/01/23 09:39:43;;;;;;;27.73;19.17;;;4.40;99.90;;;;;;6272921;22;37332;-79
2023/01/23 09:42:17;;;;;;;29.60;17.43;;;4.40;99.90;;;;;;6271849;22;37374;-80
2023/01/23 09:44:49;;;;;;;26.30;17.87;;;4.30;99.90;;;;;;6273471;22;38994;-81
2023/01/23 09:47:23;;;;;;;29.73;18.23;;;4.40;99.90;;;;;;6271878;22;37047;-79
2023/01/23 09:49:56;;;;;;;27.33;18.63;;;4.40;99.90;;;;;;6261028;22;36572;-79
2023/01/23 09:52:27;;;;;;;33.47;19.93;;;4.40;99.90;;;;;;6255869;22;36996;-78
2023/01/23 09:55:10;;;;;;;33.80;20.80;;;4.40;99.90;;;;;;6267118;22;37850;-80
2023/01/23 09:57:54;;;;;;;29.10;17.83;;;4.40;99.90;;;;;;6273849;22;48064;-80
2023/01/23 10:00:31;;;;;;;27.23;18.03;;;4.40;99.90;;;;;;6275279;22;38490;-78
2023/01/23 10:03:01;;;;;;;32.40;18.10;;;4.50;99.90;;;;;;6273723;22;37857;-80
2023/01/23 10:05:46;;;;;;;25.80;17.63;;;4.50;99.90;;;;;;6270699;22;46461;-80
2023/01/23 10:08:30;;;;;;;24.13;17.17;;;4.60;99.90;;;;;;6268014;22;37691;-80
2023/01/23 10:11:28;;;;;;;25.77;17.50;;;4.60;99.90;;;;;;6273580;22;37270;-80
2023/01/23 10:14:16;;;;;;;29.10;18.13;;;4.70;99.90;;;;;;6253177;22;48649;-81
2023/01/23 10:17:13;;;;;;;25.83;16.27;;;4.70;99.90;;;;;;6291131;22;47455;-81
2023/01/23 10:19:57;;;;;;;25.93;17.97;;;4.70;99.90;;;;;;6257912;22;48371;-80
2023/01/23 10:22:35;;;;;;;24.07;16.17;;;4.80;99.90;;;;;;6269421;22;37754;-80
2023/01/23 10:25:09;;;;;;;24.73;16.63;;;4.80;99.90;;;;;;6299270;22;37468;-81
2023/01/23 10:27:42;;;;;;;24.53;16.93;;;4.80;99.90;;;;;;6273789;22;48385;-80
2023/01/23 10:30:32;;;;;;;23.87;15.93;;;4.90;99.90;;;;;;6268994;22;37959;-82
2023/01/23 10:33:16;;;;;;;21.83;15.80;;;5.00;99.90;;;;;;6300422;22;39794;-82
2023/01/23 10:36:28;;;;;;;21.77;15.47;;;5.10;99.90;;;;;;6296312;22;48948;-81
2023/01/23 10:39:23;;;;;;;22.00;15.30;;;5.00;99.90;;;;;;6218941;22;47326;-82
2023/01/23 10:41:58;;;;;;;21.17;15.37;;;5.10;99.90;;;;;;6302149;22;47957;-82
2023/01/23 10:44:24;;;;;;;19.93;15.93;;;5.20;99.90;;;;;;6262064;22;37831;-82
2023/01/23 10:49:44;;;;;;;22.73;15.50;;;5.10;99.90;;;;;;6283702;22;20008;-80
2023/01/23 10:52:44;;;;;;;20.67;15.70;;;5.10;99.90;;;;;;6289730;22;37533;-82
2023/01/23 10:55:30;;;;;;;24.10;15.33;;;5.20;99.90;;;;;;6265008;22;39517;-81
2023/01/23 11:01:32;;;;;;;20.40;14.67;;;5.40;99.90;;;;;;6309368;22;20060;-81
2023/01/23 11:04:24;;;;;;;19.27;13.87;;;5.40;99.90;;;;;;6182544;23;49419;-82
2023/01/23 11:07:35;;;;;;;20.60;14.50;;;5.40;99.90;;;;;;6290787;22;49026;-81
2023/01/23 11:10:11;;;;;;;20.53;14.87;;;5.60;99.90;;;;;;6293750;22;49013;-81
2023/01/23 11:12:53;;;;;;;20.27;14.50;;;5.80;99.90;;;;;;6287933;22;48370;-80
2023/01/23 11:15:26;;;;;;;20.20;14.23;;;5.80;99.90;;;;;;6275173;22;38494;-81
2023/01/23 11:18:32;;;;;;;18.27;13.17;;;5.70;99.90;;;;;;6281349;22;39430;-81
2023/01/23 11:21:01;;;;;;;18.13;13.17;;;5.60;99.90;;;;;;6301084;22;50292;-81
2023/01/23 11:23:29;;;;;;;18.93;14.13;;;5.80;99.90;;;;;;6252673;22;47163;-80
2023/01/23 11:25:55;;;;;;;21.93;13.70;;;5.70;99.90;;;;;;6255348;22;37325;-79
2023/01/23 11:28:29;;;;;;;17.90;14.23;;;5.70;99.90;;;;;;6271319;22;38832;-78
2023/01/23 11:31:14;;;;;;;21.00;13.63;;;5.70;99.90;;;;;;6252934;22;36629;-81
2023/01/23 11:34:08;;;;;;;19.57;14.50;;;5.70;99.90;;;;;;6256674;22;48276;-80
2023/01/23 11:42:38;;;;;;;17.73;13.30;;;5.70;99.90;;;;;;6278876;22;19953;-80
2023/01/23 11:48:40;;;;;;;17.03;13.43;;;5.60;99.90;;;;;;6307527;22;20064;-80
2023/01/23 11:51:20;;;;;;;16.70;12.93;;;5.70;99.90;;;;;;6300266;22;48490;-79
2023/01/23 11:57:34;;;;;;;19.17;13.73;;;5.80;99.90;;;;;;6259521;22;50571;-80
2023/01/23 12:31:21;;;;;;;17.50;13.10;;;5.90;99.90;;;;;;6218612;22;20996;-81
2023/01/23 12:47:20;;;;;;;19.57;13.80;;;6.00;99.90;;;;;;6260565;22;20020;-80
2023/01/23 12:52:32;;;;;;;19.73;12.80;;;6.20;99.90;;;;;;6302227;22;20075;-81
2023/01/23 13:07:19;;;;;;;16.87;12.63;;;6.00;99.90;;;;;;6238241;22;20028;-80
2023/01/23 13:10:20;;;;;;;17.37;12.50;;;6.10;99.90;;;;;;6255026;22;48604;-83
2023/01/23 13:12:47;;;;;;;18.17;12.00;;;6.00;99.90;;;;;;6255216;22;48555;-80
2023/01/23 13:15:19;;;;;;;18.73;12.67;;;5.90;99.90;;;;;;6275320;22;38764;-80
2023/01/23 13:17:56;;;;;;;16.10;12.27;;;6.00;99.90;;;;;;6258154;22;38605;-80
2023/01/23 13:27:43;;;;;;;15.30;10.97;;;5.90;99.90;;;;;;6249771;22;49935;-80
2023/01/23 13:30:30;;;;;;;16.97;12.07;;;5.80;99.90;;;;;;6255185;22;38751;-80
2023/01/23 13:35:58;;;;;;;19.33;12.80;;;5.60;99.90;;;;;;6295352;22;20020;-79
2023/01/23 13:41:17;;;;;;;;;;;5.70;99.90;;;;;;6246060;22;20050;-82
2023/01/23 13:43:49;;;;;;;17.67;13.00;;;5.70;99.90;;;;;;6300925;22;49061;-80
2023/01/23 13:46:25;;;;;;;21.33;14.05;;;5.60;99.90;;;;;;6301160;22;39444;-80
2023/01/23 14:06:57;;;;;;;22.40;13.80;;;5.50;99.90;;;;;;6265169;22;49420;-79
2023/01/23 14:09:29;;;;;;;20.50;14.47;;;5.50;99.90;;;;;;6281863;22;37843;-80
2023/01/23 14:12:06;;;;;;;20.47;14.10;;;5.50;99.90;;;;;;6281981;22;38378;-80
2023/01/23 14:17:24;;;;;;;19.77;14.53;;;5.40;99.90;;;;;;6280658;22;38466;-80
2023/01/23 14:20:00;;;;;;;20.20;14.50;;;5.40;99.90;;;;;;6278544;22;39052;-79
2023/01/23 14:22:27;;;;;;;23.47;15.90;;;5.50;99.90;;;;;;6273557;22;38843;-79
2023/01/23 14:24:54;;;;;;;22.00;15.03;;;5.60;99.90;;;;;;6277654;22;38698;-79
2023/01/23 14:27:34;;;;;;;19.43;14.43;;;5.60;99.90;;;;;;6273352;22;37110;-79
2023/01/23 14:30:22;;;;;;;20.20;15.07;;;5.60;99.90;;;;;;6276940;22;37952;-79
2023/01/23 14:32:49;;;;;;;18.30;14.10;;;5.60;99.90;;;;;;6301454;22;48600;-79
2023/01/23 14:35:27;;;;;;;22.60;14.87;;;5.60;99.90;;;;;;6278433;22;38177;-80
2023/01/23 14:37:56;;;;;;;19.33;13.93;;;5.60;99.90;;;;;;6278267;22;36310;-80
2023/01/23 14:40:23;;;;;;;23.20;14.57;;;5.50;99.90;;;;;;6276059;22;37858;-79
2023/01/23 14:43:02;;;;;;;19.30;13.87;;;5.40;99.90;;;;;;6278474;22;38466;-79
2023/01/23 14:45:30;;;;;;;18.67;13.90;;;5.40;99.90;;;;;;6267070;22;47624;-78
2023/01/23 14:47:56;;;;;;;20.23;14.70;;;5.40;99.90;;;;;;6275383;22;37970;-80
2023/01/23 14:50:25;;;;;;;18.93;13.40;;;5.40;99.90;;;;;;6264739;22;37504;-81
2023/01/23 14:53:00;;;;;;;19.03;13.43;;;5.30;99.90;;;;;;6274231;22;37266;-79
2023/01/23 14:55:38;;;;;;;19.90;13.73;;;5.20;99.90;;;;;;6276451;22;47515;-79
2023/01/23 14:58:17;;;;;;;20.67;13.70;;;5.20;99.90;;;;;;6275945;22;37756;-80
2023/01/23 15:00:45;;;;;;;23.17;15.20;;;5.10;99.90;;;;;;6274763;22;40299;-79
2023/01/23 15:03:11;;;;;;;20.83;14.20;;;5.10;99.90;;;;;;6270974;22;37659;-80
2023/01/23 15:05:39;;;;;;;24.90;15.00;;;5.00;99.90;;;;;;6277145;22;38169;-80
2023/01/23 15:08:23;;;;;;;19.23;14.13;;;4.90;99.90;;;;;;6274180;22;37950;-80
2023/01/23 15:10:50;;;;;;;22.23;14.37;;;4.90;99.90;;;;;;6275109;22;38773;-80
2023/01/23 15:13:28;;;;;;;19.37;15.07;;;4.90;99.90;;;;;;6272262;22;38637;-80
2023/01/23 15:16:00;;;;;;;22.97;15.60;;;4.90;99.90;;;;;;6273079;22;38773;-80
2023/01/23 15:18:32;;;;;;;20.27;13.95;;;5.00;99.90;;;;;;6269345;22;37872;-79
2023/01/23 15:21:04;;;;;;;22.77;15.32;;;4.90;99.90;;;;;;6274538;22;39805;-79
2023/01/23 15:23:36;;;;;;;24.05;17.25;;;4.90;99.90;;;;;;6293068;22;47867;-79
2023/01/23 15:26:16;;;;;;;23.40;18.10;;;4.80;99.90;;;;;;6274809;22;39279;-81
2023/01/23 15:29:01;;;;;;;23.37;16.37;;;4.70;99.90;;;;;;6273952;22;36646;-80
2023/01/23 15:31:30;;;;;;;24.77;16.23;;;4.70;99.90;;;;;;6273403;22;47190;-79
2023/01/23 15:34:10;;;;;;;20.53;15.10;;;4.70;99.90;;;;;;6274531;22;39156;-80
2023/01/23 15:36:37;;;;;;;20.57;15.53;;;4.60;99.90;;;;;;6272258;22;47078;-80
2023/01/23 15:39:03;;;;;;;24.13;16.97;;;4.60;99.90;;;;;;6273826;22;35757;-80
2023/01/23 15:41:54;;;;;;;22.77;16.43;;;4.50;99.90;;;;;;6274070;22;39310;-80
2023/01/23 15:44:21;;;;;;;22.47;15.07;;;4.50;99.90;;;;;;6274941;22;38502;-80
2023/01/23 15:46:48;;;;;;;23.50;16.30;;;4.40;99.90;;;;;;6274359;22;37117;-79
2023/01/23 15:49:15;;;;;;;28.50;16.50;;;4.40;99.90;;;;;;6275946;22;38199;-81
2023/01/23 15:51:44;;;;;;;25.77;16.17;;;4.30;99.90;;;;;;6275545;22;39557;-80
2023/01/23 15:54:25;;;;;;;26.83;16.43;;;4.30;99.90;;;;;;6269494;22;37747;-79
2023/01/23 15:56:55;;;;;;;22.83;16.27;;;4.30;99.90;;;;;;6266848;22;38202;-78
2023/01/23 15:59:22;;;;;;;25.97;17.13;;;4.20;99.90;;;;;;6251625;22;38403;-78
2023/01/23 16:01:48;;;;;;;27.20;18.03;;;4.10;99.90;;;;;;6275043;22;39694;-79
2023/01/23 16:04:21;;;;;;;27.70;18.20;;;4.00;99.90;;;;;;6272067;22;37114;-79
2023/01/23 16:06:51;;;;;;;24.93;17.73;;;4.00;99.90;;;;;;6264424;22;38005;-79
2023/01/23 16:09:24;;;;;;;33.97;18.50;;;3.90;99.90;;;;;;6270160;22;37184;-79
2023/01/23 16:11:51;;;;;;;27.17;18.60;;;3.80;99.90;;;;;;6278498;22;39257;-79
2023/01/23 16:14:19;;;;;;;29.63;19.07;;;3.70;99.90;;;;;;6276910;22;38684;-80
2023/01/23 16:16:45;;;;;;;26.83;19.67;;;3.70;99.90;;;;;;6276789;22;39011;-79
2023/01/23 16:19:11;;;;;;;29.40;20.53;;;3.70;99.90;;;;;;6273969;22;38223;-79
2023/01/23 16:21:42;;;;;;;29.10;20.83;;;3.60;99.90;;;;;;6276520;22;39143;-79
2023/01/23 16:24:19;;;;;;;39.27;28.37;;;3.60;99.90;;;;;;6272708;22;37367;-79
2023/01/23 16:26:47;;;;;;;29.93;24.13;;;3.50;99.90;;;;;;6274244;22;37805;-79
2023/01/23 16:29:31;;;;;;;30.53;19.83;;;3.50;99.90;;;;;;6271051;22;37890;-78
2023/01/23 16:31:58;;;;;;;28.20;18.60;;;3.50;99.90;;;;;;6275247;22;38659;-79
2023/01/23 16:34:25;;;;;;;26.53;19.87;;;3.50;99.90;;;;;;6268200;22;39067;-78
2023/01/23 16:36:57;;;;;;;28.33;19.57;;;3.40;99.90;;;;;;6272058;22;40171;-79
2023/01/23 16:39:28;;;;;;;25.65;18.15;;;3.40;99.90;;;;;;6272836;22;38692;-78
2023/01/23 16:41:54;;;;;;;30.00;19.53;;;3.50;99.90;;;;;;6274932;22;40803;-79
2023/01/23 16:44:22;;;;;;;31.70;21.77;;;3.50;99.90;;;;;;6280123;22;38453;-80
2023/01/23 16:46:50;;;;;;;30.70;20.83;;;3.50;99.90;;;;;;6282541;22;37401;-79
2023/01/23 16:49:17;;;;;;;29.73;19.63;;;3.50;99.90;;;;;;6284259;22;37485;-79
2023/01/23 16:51:54;;;;;;;26.03;18.33;;;3.60;99.90;;;;;;6284158;22;40268;-78
2023/01/23 16:54:21;;;;;;;26.77;18.20;;;3.70;99.90;;;;;;6279874;22;39416;-78
2023/01/23 16:56:52;;;;;;;26.00;17.83;;;3.70;99.90;;;;;;6280866;22;40024;-79
2023/01/23 16:59:36;;;;;;;28.77;18.27;;;3.70;99.90;;;;;;6280147;22;37604;-79
2023/01/23 17:02:20;;;;;;;24.67;17.33;;;3.80;99.90;;;;;;6279206;22;40843;-80
2023/01/23 17:04:46;;;;;;;23.57;16.90;;;3.90;99.90;;;;;;6275137;22;37456;-79
2023/01/23 17:07:17;;;;;;;24.50;17.20;;;4.00;99.90;;;;;;6274615;22;38372;-79
2023/01/23 17:09:44;;;;;;;25.77;17.00;;;4.00;99.90;;;;;;6278101;22;38316;-79
2023/01/23 17:12:19;;;;;;;22.97;16.13;;;4.10;99.90;;;;;;6276032;22;39270;-79
2023/01/23 17:14:47;;;;;;;21.97;15.80;;;4.10;99.90;;;;;;6278054;22;39103;-78
2023/01/23 17:17:24;;;;;;;19.93;15.47;;;4.20;99.90;;;;;;6272267;22;39104;-79
2023/01/23 17:19:51;;;;;;;21.83;14.13;;;4.20;99.90;;;;;;6271879;22;36183;-79
2023/01/23 17:22:24;;;;;;;23.17;13.97;;;4.20;99.90;;;;;;6272128;22;39773;-79
2023/01/23 17:24:50;;;;;;;23.00;14.40;;;4.30;99.90;;;;;;6273911;22;38400;-79
2023/01/23 17:27:19;;;;;;;19.70;14.30;;;4.30;99.90;;;;;;6278817;22;37135;-79
2023/01/23 17:29:45;;;;;;;19.37;13.20;;;4.30;99.90;;;;;;6279561;22;37496;-79
2023/01/23 17:32:31;;;;;;;28.67;18.10;;;4.40;99.90;;;;;;6275058;22;39993;-79
2023/01/23 17:34:59;;;;;;;20.80;15.17;;;4.40;99.90;;;;;;6277343;22;39072;-79
2023/01/23 17:37:25;;;;;;;18.40;14.10;;;4.50;99.90;;;;;;6274431;22;36585;-79
2023/01/23 17:39:52;;;;;;;18.93;14.63;;;4.50;99.90;;;;;;6273751;22;37832;-79
2023/01/23 17:42:18;;;;;;;21.67;14.90;;;4.50;99.90;;;;;;6276337;22;40208;-78
2023/01/23 17:44:44;;;;;;;20.23;14.40;;;4.50;99.90;;;;;;6278036;22;38985;-78
2023/01/23 17:47:11;;;;;;;25.30;18.00;;;4.50;99.90;;;;;;6287889;22;38436;-78
2023/01/23 17:49:38;;;;;;;24.23;15.20;;;4.50;99.90;;;;;;6288631;22;37423;-79
2023/01/23 17:52:09;;;;;;;20.97;14.90;;;4.50;99.90;;;;;;6276151;22;39781;-79
2023/01/23 17:54:36;;;;;;;19.60;14.60;;;4.60;99.90;;;;;;6275520;22;38336;-78
2023/01/23 17:57:05;;;;;;;22.77;15.43;;;4.60;99.90;;;;;;6280158;22;38585;-81
2023/01/23 17:59:32;;;;;;;19.10;14.27;;;4.60;99.90;;;;;;6290975;22;37959;-80
2023/01/23 18:01:58;;;;;;;20.77;15.27;;;4.60;99.90;;;;;;6289896;22;38974;-81
2023/01/23 18:04:24;;;;;;;21.03;14.63;;;4.60;99.90;;;;;;6280956;22;37103;-80
2023/01/23 18:06:51;;;;;;;20.93;14.20;;;4.60;99.90;;;;;;6278127;22;36766;-79